Time;durP1;ratioP1;P1;durP2;ratioP2;P2;SDS_P1;SDS_P2;PMS_P1;PMS_P2;Temp;Humidity;BMP_temperature;BMP_pressure;BME280_temperature;BME280_humidity;BME280_pressure;Samples;Min_cycle;Max_cycle;Signal;HPM_P1;HPM_P2
2023/08/12 00:00:07;;;;;;;;;;;26.00;77.50;;;26.24;47.11;98922.38;4984790;28;124333;-77
2023/08/12 00:02:36;;;;;;;;;;;26.00;77.70;;;26.20;47.81;98916.75;4992843;28;124023;-77
2023/08/12 00:05:10;;;;;;;;;;;26.00;78.10;;;26.18;47.95;98918.41;4969931;28;115567;-77
2023/08/12 00:07:37;;;;;;;;;;;26.00;78.30;;;26.15;47.55;98922.06;4979930;28;113589;-78
2023/08/12 00:10:07;;;;;;;;;;;25.90;78.40;;;26.12;48.21;98903.88;4984207;28;124491;-77
2023/08/12 00:12:37;;;;;;;;;;;25.90;78.70;;;26.10;48.11;98911.97;4995120;28;123645;-77
2023/08/12 00:15:10;;;;;;;;;;;25.90;79.00;;;26.08;48.36;98910.78;4982946;28;114103;-78
2023/08/12 00:17:37;;;;;;;;;;;25.90;79.20;;;26.07;47.89;98912.00;4981364;28;113807;-78
2023/08/12 00:20:10;;;;;;;;;;;25.80;79.40;;;26.03;48.42;98914.84;4990276;28;124457;-78
2023/08/12 00:22:37;;;;;;;;;;;25.80;79.60;;;26.00;48.51;98898.69;4986892;28;123878;-78
2023/08/12 00:25:07;;;;;;;;;;;25.80;79.90;;;25.99;48.28;98905.56;4989141;28;114592;-78
2023/08/12 00:27:37;;;;;;;;;;;25.80;80.10;;;25.97;48.75;98893.84;4975520;28;112605;-78
2023/08/12 00:30:12;;;;;;;;;;;25.70;80.30;;;25.92;48.74;98888.63;4994785;28;124024;-77
2023/08/12 00:32:47;;;;;;;;;;;25.70;80.50;;;25.89;48.62;98895.91;4988233;28;124191;-78
2023/08/12 00:35:19;;;;;;;;;;;25.70;80.80;;;25.85;49.16;98888.69;4978869;28;115811;-77
2023/08/12 00:37:45;;;;;;;;;;;25.70;81.10;;;25.82;48.81;98889.44;4987886;28;114601;-77
2023/08/12 00:40:13;;;;;;;;;;;25.60;81.30;;;25.79;49.00;98891.09;4978417;28;124065;-78
2023/08/12 00:42:39;;;;;;;;;;;25.50;81.40;;;25.76;48.87;98881.44;4982931;28;123933;-78
2023/08/12 00:45:13;;;;;;;;;;;25.50;81.50;;;25.74;49.32;98880.22;4985211;28;113434;-78
2023/08/12 00:47:45;;;;;;;;;;;25.50;81.80;;;25.69;49.51;98875.00;4989083;28;113980;-77
2023/08/12 00:50:13;;;;;;;;;;;25.50;82.00;;;25.66;49.21;98878.66;4985105;28;123497;-77
2023/08/12 00:52:45;;;;;;;;;;;25.50;82.20;;;25.63;49.41;98879.44;4970420;28;124034;-78
2023/08/12 00:55:12;;;;;;;;;;;25.40;82.30;;;25.62;49.17;98880.69;4987399;28;114479;-76
2023/08/12 00:57:38;;;;;;;;;;;25.40;82.50;;;25.60;49.20;98883.91;4984232;28;113143;-76
2023/08/12 01:00:08;;;;;;;;;;;25.40;82.60;;;25.57;49.55;98877.06;4993764;28;123958;-76
2023/08/12 01:02:34;;;;;;;;;;;25.30;82.60;;;25.55;49.12;98882.34;4970604;28;123180;-76
2023/08/12 01:05:01;;;;;;;;;;;25.30;82.80;;;25.52;49.33;98882.34;5003086;28;114418;-76
2023/08/12 01:07:33;;;;;;;;;;;25.30;82.90;;;25.49;49.29;98866.19;4987123;28;114384;-78
2023/08/12 01:09:59;;;;;;;;;;;25.30;83.10;;;25.47;49.80;98865.78;4990105;28;124839;-76
2023/08/12 01:12:33;;;;;;;;;;;25.30;83.30;;;25.42;49.86;98867.03;4975328;28;124752;-76
2023/08/12 01:15:13;;;;;;;;;;;25.20;83.40;;;25.40;49.97;98863.00;4998156;28;114261;-75
2023/08/12 01:17:43;;;;;;;;;;;25.20;83.60;;;25.35;49.62;98855.75;4967983;28;111724;-76
2023/08/12 01:20:12;;;;;;;;;;;25.10;83.70;;;25.34;49.80;98854.16;4974006;28;124314;-76
2023/08/12 01:22:44;;;;;;;;;;;25.10;83.90;;;25.31;49.68;98854.97;4992281;28;123938;-75
2023/08/12 01:25:10;;;;;;;;;;;25.10;84.10;;;25.27;49.85;98852.13;4972536;28;115347;-75
2023/08/12 01:27:37;;;;;;;;;;;25.10;84.30;;;25.26;49.90;98847.72;4993553;28;114943;-76
2023/08/12 01:30:10;;;;;;;;;;;26.60;85.60;;;25.25;50.41;98850.94;4963082;28;123327;-75
2023/08/12 01:32:44;;;;;;;;;;;25.00;84.70;;;25.22;50.46;98846.91;4973847;28;123975;-77
2023/08/12 01:35:34;;;;;;;;;;;25.00;84.90;;;25.18;50.15;98842.50;4972332;28;113256;-77
2023/08/12 01:38:08;;;;;;;;;;;25.00;85.00;;;25.16;50.58;98839.28;4974556;28;113722;-75
2023/08/12 01:40:35;;;;;;;;;;;24.90;85.20;;;25.12;50.74;98834.41;4989322;28;124630;-75
2023/08/12 01:43:03;;;;;;;;;;;24.90;85.50;;;25.10;50.65;98830.38;4983021;28;123809;-75
2023/08/12 01:45:32;;;;;;;;;;;24.90;85.80;;;25.06;50.97;98830.38;4980662;28;114432;-76
2023/08/12 01:47:59;;;;;;;;;;;24.90;86.00;;;25.05;50.62;98831.59;4981114;28;113871;-75
2023/08/12 01:50:25;;;;;;;;;;;24.80;86.20;;;25.03;51.21;98828.38;4985932;28;124206;-75
2023/08/12 01:52:54;;;;;;;;;;;24.80;86.50;;;25.01;50.84;98830.81;4968780;28;123708;-75
2023/08/12 01:55:20;;;;;;;;;;;24.80;86.60;;;25.00;51.33;98825.56;4973470;28;114375;-75
2023/08/12 01:57:47;;;;;;;;;;;24.80;86.80;;;24.98;51.17;98836.47;4987126;28;113750;-76
2023/08/12 02:00:13;;;;;;;;;;;24.70;86.90;;;24.95;51.08;98832.44;4988920;28;124317;-75
2023/08/12 02:02:48;;;;;;;;;;;24.70;87.00;;;24.91;51.44;98831.66;4986601;28;123737;-76
2023/08/12 02:05:20;;;;;;;;;;;24.70;87.20;;;24.88;51.25;98832.47;4976553;28;114244;-75
2023/08/12 02:07:46;;;;;;;;;;;24.70;87.30;;;24.85;51.14;98833.25;4974410;28;113395;-75
2023/08/12 02:10:20;;;;;;;;;;;24.60;87.40;;;24.82;51.27;98840.53;4983844;28;124031;-76
2023/08/12 02:12:46;;;;;;;;;;;24.60;87.60;;;24.81;51.32;98829.66;4980873;28;124360;-75
2023/08/12 02:15:12;;;;;;;;;;;24.60;87.80;;;24.80;51.59;98826.03;4983074;28;114796;-76
2023/08/12 02:17:38;;;;;;;;;;;24.50;88.00;;;24.80;51.52;98836.53;4979186;28;114515;-76
2023/08/12 02:20:08;;;;;;;;;;;24.60;88.20;;;24.78;51.58;98828.44;4996516;28;124673;-76
2023/08/12 02:22:34;;;;;;;;;;;24.50;88.30;;;24.77;51.71;98828.84;4996508;28;123282;-75
2023/08/12 02:25:01;;;;;;;;;;;24.50;88.40;;;24.76;51.82;98819.56;4974515;28;113230;-76
2023/08/12 02:27:33;;;;;;;;;;;24.50;88.50;;;24.76;51.67;98821.59;4975700;28;113482;-76
2023/08/12 02:29:59;;;;;;;;;;;24.50;88.60;;;24.76;51.61;98821.59;4988583;28;124159;-76
2023/08/12 02:32:26;;;;;;;;;;;24.50;88.70;;;24.74;51.70;98818.38;4978176;28;124266;-76
2023/08/12 02:34:57;;;;;;;;;;;24.50;88.80;;;24.74;51.65;98815.53;4974562;28;114433;-77
2023/08/12 02:37:25;;;;;;;;;;;24.50;88.90;;;24.72;51.79;98813.13;4990183;28;115523;-77
2023/08/12 02:39:54;;;;;;;;;;;24.50;89.70;;;24.71;51.75;98814.34;4982907;28;124128;-76
2023/08/12 02:42:21;;;;;;;;;;;24.40;89.10;;;24.68;51.74;98804.66;4985280;28;123863;-76
2023/08/12 02:44:47;;;;;;;;;;;24.40;89.10;;;24.67;51.87;98810.72;4991198;28;114650;-76
2023/08/12 02:47:18;;;;;;;;;;;24.40;89.30;;;24.64;51.91;98801.03;4989437;28;113434;-76
2023/08/12 02:49:47;;;;;;;;;;;24.40;89.40;;;24.62;51.96;98809.09;4978681;28;125136;-76
2023/08/12 02:52:21;;;;;;;;;;;24.30;89.50;;;24.63;51.81;98804.25;4983550;28;122580;-76
2023/08/12 02:54:47;;;;;;;;;;;24.30;89.70;;;24.61;52.10;98799.03;4982013;28;114602;-76
2023/08/12 02:57:13;;;;;;;;;;;24.30;89.80;;;24.62;52.03;98811.94;4985578;28;113642;-76
2023/08/12 02:59:45;;;;;;;;;;;24.30;89.90;;;24.63;52.11;98813.53;4999581;28;123490;-76
2023/08/12 03:02:11;;;;;;;;;;;24.30;90.00;;;24.62;52.22;98803.47;4988223;28;123533;-76
2023/08/12 03:04:37;;;;;;;;;;;24.30;90.00;;;24.62;52.29;98803.47;4989828;28;115336;-76
2023/08/12 03:07:07;;;;;;;;;;;24.30;90.00;;;24.63;52.29;98804.25;4964649;28;114164;-76
2023/08/12 03:09:33;;;;;;;;;;;24.30;90.00;;;24.62;52.01;98799.84;4991799;28;124174;-76
2023/08/12 03:12:02;;;;;;;;;;;24.30;90.10;;;24.60;52.09;98800.22;5001920;28;124536;-76
2023/08/12 03:14:31;;;;;;;;;;;24.30;90.10;;;24.59;52.33;98804.28;5003796;28;114623;-76
2023/08/12 03:16:58;;;;;;;;;;;24.30;90.20;;;24.59;52.34;98798.63;4985041;28;115380;-76
2023/08/12 03:19:25;;;;;;;;;;;24.30;90.20;;;24.59;52.22;98792.19;5002416;28;124541;-76
2023/08/12 03:21:53;;;;;;;;;;;24.30;90.30;;;24.60;52.02;98800.22;4998029;28;124481;-75
2023/08/12 03:24:25;;;;;;;;;;;24.30;90.30;;;24.57;52.46;98792.56;5001106;28;114061;-76
2023/08/12 03:26:51;;;;;;;;;;;24.30;90.40;;;24.57;52.26;98792.56;4985416;28;113723;-76
2023/08/12 03:29:18;;;;;;;;;;;26.00;91.10;;;24.56;52.47;98790.97;4992944;28;124215;-75
2023/08/12 03:31:47;;;;;;;;;;;24.30;90.50;;;24.57;52.45;98783.28;4998467;28;122824;-76
2023/08/12 03:34:13;;;;;;;;;;;24.20;90.60;;;24.56;52.68;98785.31;4971028;28;114355;-76
2023/08/12 03:36:39;;;;;;;;;;;24.30;90.70;;;24.56;52.62;98790.16;4980888;28;113658;-76
2023/08/12 03:39:06;;;;;;;;;;;24.20;90.70;;;24.53;52.74;98783.31;4981678;28;123223;-76
2023/08/12 03:41:35;;;;;;;;;;;24.20;90.70;;;24.54;52.97;98786.94;4974783;28;124172;-76
2023/08/12 03:44:01;;;;;;;;;;;24.20;90.80;;;24.51;52.80;98787.75;4982551;28;116145;-76
2023/08/12 03:46:27;;;;;;;;;;;24.20;90.90;;;24.51;53.09;98785.72;4972097;28;113961;-77
2023/08/12 03:48:54;;;;;;;;;;;24.20;90.90;;;24.51;53.01;98776.47;4975521;28;124634;-77
2023/08/12 03:51:28;;;;;;;;;;;24.20;91.00;;;24.52;53.09;98786.53;4986572;28;124590;-76
2023/08/12 03:53:59;;;;;;;;;;;24.20;91.00;;;24.51;53.05;98784.94;4980287;28;115113;-76
2023/08/12 03:56:25;;;;;;;;;;;24.20;91.00;;;24.52;53.03;98786.53;4976645;28;114804;-76
2023/08/12 03:58:52;;;;;;;;;;;24.20;91.10;;;24.52;53.18;98787.34;4978823;28;124617;-76
2023/08/12 04:01:18;;;;;;;;;;;24.20;91.10;;;24.52;52.86;98792.97;4996969;28;125042;-76
2023/08/12 04:03:47;;;;;;;;;;;24.20;91.10;;;24.52;52.81;98792.97;4973582;28;113991;-76
2023/08/12 04:06:13;;;;;;;;;;;24.20;91.10;;;24.52;53.15;98792.19;4984882;28;113768;-76
2023/08/12 04:08:39;;;;;;;;;;;24.20;91.20;;;24.53;52.95;98788.97;4984732;28;124190;-76
2023/08/12 04:11:06;;;;;;;;;;;24.20;91.20;;;24.54;53.02;98798.25;4976556;28;123903;-76
2023/08/12 04:13:40;;;;;;;;;;;24.20;91.20;;;24.53;53.08;98799.44;4978721;28;114479;-76
2023/08/12 04:16:06;;;;;;;;;;;24.20;91.30;;;24.55;52.84;98800.63;4977066;28;114057;-76
2023/08/12 04:18:34;;;;;;;;;;;24.20;91.30;;;24.56;53.39;98793.78;4965735;28;123456;-76
2023/08/12 04:21:01;;;;;;;;;;;24.20;91.40;;;24.57;53.12;98795.41;4975885;28;124119;-77
2023/08/12 04:23:27;;;;;;;;;;;24.20;91.40;;;24.56;53.15;98802.28;4992717;28;114503;-76
2023/08/12 04:25:54;;;;;;;;;;;24.20;91.40;;;24.56;53.12;98805.09;4990016;28;114118;-76
2023/08/12 04:28:22;;;;;;;;;;;24.20;91.50;;;24.57;53.10;98818.00;4986128;28;123743;-76
2023/08/12 04:30:52;;;;;;;;;;;24.20;91.50;;;24.50;53.56;98820.81;4978718;28;124347;-76
2023/08/12 04:33:27;;;;;;;;;;;24.20;91.60;;;24.46;53.42;98826.50;4995946;28;114539;-76
2023/08/12 04:35:58;;;;;;;;;;;24.20;91.60;;;24.46;53.27;98831.34;4976857;28;113550;-76
2023/08/12 04:38:27;;;;;;;;;;;24.20;91.60;;;24.45;53.45;98826.91;4989496;28;124253;-76
2023/08/12 04:40:54;;;;;;;;;;;24.20;91.60;;;24.45;53.35;98826.91;4986927;28;123964;-76
2023/08/12 04:43:25;;;;;;;;;;;24.20;91.70;;;24.44;53.34;98811.97;4985501;28;114690;-76
2023/08/12 04:45:52;;;;;;;;;;;24.20;91.70;;;24.44;53.46;98809.13;4993166;28;114908;-76
2023/08/12 04:48:24;;;;;;;;;;;24.10;91.80;;;24.42;53.37;98822.00;4990606;28;124858;-75
2023/08/12 04:50:51;;;;;;;;;;;24.10;91.80;;;24.42;53.84;98807.91;4990849;28;124244;-76
2023/08/12 04:53:17;;;;;;;;;;;24.10;91.80;;;24.43;53.61;98812.34;4983333;28;115060;-76
2023/08/12 04:55:50;;;;;;;;;;;24.10;91.90;;;24.44;53.75;98811.16;4979843;28;113721;-77
2023/08/12 04:58:16;;;;;;;;;;;24.10;91.90;;;24.45;53.40;98821.25;4962263;28;123918;-76
2023/08/12 05:00:45;;;;;;;;;;;24.10;91.90;;;24.45;53.81;98822.06;4988111;28;124149;-75
2023/08/12 05:03:14;;;;;;;;;;;24.10;92.00;;;24.45;53.92;98816.41;4983570;28;114376;-75
2023/08/12 05:05:40;;;;;;;;;;;24.10;92.00;;;24.43;53.85;98807.50;4986893;28;113770;-75
2023/08/12 05:08:09;;;;;;;;;;;24.10;92.10;;;24.43;53.99;98824.44;4967941;28;124587;-76
2023/08/12 05:10:36;;;;;;;;;;;24.10;92.10;;;24.43;53.91;98821.63;4970790;28;124023;-75
2023/08/12 05:13:03;;;;;;;;;;;24.10;92.00;;;24.44;53.87;98808.34;4972179;28;114275;-76
2023/08/12 05:15:29;;;;;;;;;;;24.10;92.10;;;24.46;53.84;98814.38;4973749;28;114132;-75
2023/08/12 05:17:58;;;;;;;;;;;24.10;92.10;;;24.47;53.99;98801.88;4968929;28;123990;-75
2023/08/12 05:20:24;;;;;;;;;;;24.10;92.20;;;24.48;53.85;98803.50;4973544;28;123763;-76
2023/08/12 05:22:51;;;;;;;;;;;24.10;92.20;;;24.50;53.99;98820.81;4977910;28;114868;-77
2023/08/12 05:25:17;;;;;;;;;;;24.20;92.40;;;24.50;54.33;98822.84;4977206;28;112837;-77
2023/08/12 05:27:45;;;;;;;;;;;24.10;92.50;;;24.51;54.24;98824.47;4985915;28;125034;-76
2023/08/12 05:30:12;;;;;;;;;;;24.20;92.60;;;24.50;54.25;98818.00;4978791;28;124231;-77
2023/08/12 05:32:38;;;;;;;;;;;24.10;92.60;;;24.50;54.42;98820.81;4994246;28;114994;-77
2023/08/12 05:35:17;;;;;;;;;;;24.20;92.60;;;24.51;54.20;98818.81;4980802;28;114687;-77
2023/08/12 05:37:45;;;;;;;;;;;24.20;92.60;;;24.51;54.20;98816.81;4990996;28;123920;-77
2023/08/12 05:40:11;;;;;;;;;;;24.20;92.70;;;24.52;54.29;98817.59;4977010;28;124095;-76
2023/08/12 05:42:38;;;;;;;;;;;24.10;92.60;;;24.52;54.36;98824.06;4989047;28;114629;-77
2023/08/12 05:45:04;;;;;;;;;;;24.20;92.70;;;24.52;54.59;98809.94;4977292;28;113851;-76
2023/08/12 05:47:38;;;;;;;;;;;24.20;93.10;;;24.50;54.97;98806.69;4982532;28;123242;-76
2023/08/12 05:50:14;;;;;;;;;;;24.20;93.00;;;24.50;54.77;98806.69;4973247;28;124072;-76
2023/08/12 05:52:40;;;;;;;;;;;24.20;93.10;;;24.52;54.84;98812.75;4975458;28;113754;-76
2023/08/12 05:55:09;;;;;;;;;;;24.20;93.20;;;24.54;55.36;98818.00;4978480;28;114123;-76
2023/08/12 05:57:35;;;;;;;;;;;24.20;93.40;;;24.57;55.53;98817.19;4981479;28;124305;-76
2023/08/12 06:00:01;;;;;;;;;;;24.20;93.60;;;24.59;55.63;98815.56;4976603;28;124283;-76
2023/08/12 06:02:27;;;;;;;;;;;24.20;93.70;;;24.62;55.95;98813.97;4975756;28;112628;-76
2023/08/12 06:05:00;;;;;;;;;;;24.20;93.80;;;24.61;55.78;98804.69;4975110;28;113420;-76
2023/08/12 06:07:26;;;;;;;;;;;24.20;94.00;;;24.63;55.97;98804.25;4981564;28;124719;-75
2023/08/12 06:09:56;;;;;;;;;;;24.30;94.10;;;24.63;55.98;98816.38;4982063;28;123826;-76
2023/08/12 06:12:22;;;;;;;;;;;24.20;94.20;;;24.64;56.10;98820.81;4973360;28;114447;-75
2023/08/12 06:14:49;;;;;;;;;;;24.30;94.20;;;24.64;56.37;98822.84;4980462;28;112684;-76
2023/08/12 06:17:15;;;;;;;;;;;24.30;94.30;;;24.62;56.60;98814.75;4965282;28;124508;-75
2023/08/12 06:19:44;;;;;;;;;;;24.30;94.40;;;24.63;56.20;98807.88;4973502;28;124731;-76
2023/08/12 06:22:10;;;;;;;;;;;24.30;94.40;;;24.62;56.33;98800.63;4982671;28;115270;-76
2023/08/12 06:24:39;;;;;;;;;;;24.30;94.50;;;24.64;56.33;98801.03;4968594;28;114586;-78
2023/08/12 06:27:08;;;;;;;;;;;24.30;94.50;;;24.68;56.66;98795.38;4974545;28;123243;-77
2023/08/12 06:29:35;;;;;;;;;;;24.30;94.60;;;24.72;56.29;98796.19;4972479;28;122777;-76
2023/08/12 06:32:01;;;;;;;;;;;24.30;94.60;;;24.74;56.53;98792.94;4989894;28;113963;-77
2023/08/12 06:34:27;;;;;;;;;;;24.30;94.70;;;24.76;56.50;98798.97;4979858;28;113731;-76
2023/08/12 06:36:57;;;;;;;;;;;24.30;94.70;;;24.77;56.77;98801.41;4998441;28;124576;-77
2023/08/12 06:39:23;;;;;;;;;;;24.40;94.80;;;24.79;56.52;98795.34;4980614;28;124606;-77
2023/08/12 06:41:50;;;;;;;;;;;24.40;94.90;;;24.80;56.64;98799.78;4987809;28;113776;-76
2023/08/12 06:44:17;;;;;;;;;;;24.40;94.90;;;24.81;56.57;98799.38;4988366;28;113774;-77
2023/08/12 06:46:51;;;;;;;;;;;24.40;94.90;;;24.83;56.44;98802.59;4970935;28;124319;-77
2023/08/12 06:49:24;;;;;;;;;;;24.40;94.80;;;24.86;56.25;98800.97;4984644;28;123366;-78
2023/08/12 06:51:50;;;;;;;;;;;24.40;94.80;;;24.89;56.25;98802.97;4985127;28;114804;-78
2023/08/12 06:54:22;;;;;;;;;;;24.50;94.80;;;24.95;56.28;98807.00;4981222;28;113660;-77
2023/08/12 06:56:49;;;;;;;;;;;24.50;94.80;;;25.04;56.00;98801.72;4984099;28;123269;-77
2023/08/12 06:59:15;;;;;;;;;;;24.60;94.80;;;25.13;55.58;98793.59;4982218;28;124006;-76
2023/08/12 07:01:47;;;;;;;;;;;24.70;94.70;;;25.23;55.56;98794.81;4984809;28;114350;-79
2023/08/12 07:04:14;;;;;;;;;;;24.70;94.60;;;25.33;55.34;98795.94;4974925;28;111900;-79
2023/08/12 07:06:40;;;;;;;;;;;24.80;94.60;;;25.38;54.69;98798.34;4987154;28;124218;-79
2023/08/12 07:09:09;;;;;;;;;;;24.80;94.50;;;25.41;54.61;98799.53;4972186;28;123785;-79
2023/08/12 07:11:35;;;;;;;;;;;24.90;94.40;;;25.49;54.45;98799.09;4985340;28;115336;-79
2023/08/12 07:14:01;;;;;;;;;;;24.90;94.30;;;25.60;54.58;98792.56;4978171;28;114053;-79
2023/08/12 07:16:28;;;;;;;;;;;25.00;94.30;;;25.73;54.26;98794.47;4970829;28;123807;-79
2023/08/12 07:19:00;;;;;;;;;;;25.10;94.20;;;25.85;53.67;98800.94;4985130;28;123544;-79
2023/08/12 07:21:26;;;;;;;;;;;25.20;94.10;;;25.88;53.71;98800.09;4967724;28;114388;-79
2023/08/12 07:23:58;;;;;;;;;;;25.30;93.90;;;25.88;53.17;98791.59;4982120;28;113554;-79
2023/08/12 07:26:25;;;;;;;;;;;25.30;93.70;;;25.92;53.55;98798.81;4978181;28;124231;-79
2023/08/12 07:28:51;;;;;;;;;;;25.40;93.70;;;25.96;53.61;98793.94;4974909;28;123535;-79
2023/08/12 07:31:20;;;;;;;;;;;25.40;93.70;;;26.08;53.49;98798.28;4964172;28;114187;-79
2023/08/12 07:33:46;;;;;;;;;;;25.50;93.60;;;26.22;52.80;98803.03;4978731;28;112901;-80
2023/08/12 07:36:13;;;;;;;;;;;25.60;93.60;;;26.36;52.66;98802.91;4980949;28;123627;-81
2023/08/12 07:38:39;;;;;;;;;;;25.70;93.60;;;26.48;52.53;98789.44;4975634;28;123963;-81
2023/08/12 07:41:08;;;;;;;;;;;25.80;93.50;;;26.59;52.29;98790.16;4979901;28;114072;-81
2023/08/12 07:43:35;;;;;;;;;;;25.90;93.50;;;26.69;52.58;98792.09;4968385;28;113692;-80
2023/08/12 07:46:04;;;;;;;;;;;26.00;93.40;;;26.74;52.42;98791.63;4976704;28;125281;-80
2023/08/12 07:48:33;;;;;;;;;;;26.00;93.40;;;26.78;52.17;98789.53;4969550;28;123145;-80
2023/08/12 07:51:02;;;;;;;;;;;26.10;93.40;;;26.80;52.09;98783.47;4980437;28;113547;-80
2023/08/12 07:53:28;;;;;;;;;;;26.20;93.40;;;26.85;52.42;98786.63;4972537;28;111925;-81
2023/08/12 07:55:57;;;;;;;;;;;26.20;93.30;;;26.92;52.03;98784.94;4970448;28;124190;-80
2023/08/12 07:58:23;;;;;;;;;;;26.30;93.30;;;27.00;52.23;98783.63;4984036;28;123286;-80
2023/08/12 08:00:53;;;;;;;;;;;26.30;93.20;;;27.10;51.90;98779.84;4975390;28;114783;-79
2023/08/12 08:03:21;;;;;;;;;;;26.40;93.10;;;27.20;51.82;98787.44;4976972;28;113765;-79
2023/08/12 08:05:48;;;;;;;;;;;26.50;93.00;;;27.28;51.40;98794.63;4975463;28;124164;-79
2023/08/12 08:08:14;;;;;;;;;;;26.60;92.80;;;27.29;50.75;98787.72;4975400;28;124246;-79
2023/08/12 08:10:40;;;;;;;;;;;26.70;92.60;;;27.33;50.64;98784.84;4983184;28;114413;-80
2023/08/12 08:13:11;;;;;;;;;;;26.70;92.40;;;27.39;50.44;98785.19;4989663;28;114125;-81
2023/08/12 08:15:37;;;;;;;;;;;26.70;92.20;;;27.41;50.08;98771.38;4990401;28;124122;-82
2023/08/12 08:18:04;;;;;;;;;;;26.80;92.10;;;27.47;50.47;98770.44;4982296;28;123674;-81
2023/08/12 08:20:35;;;;;;;;;;;26.90;92.40;;;27.57;49.98;98768.69;4974014;28;114440;-81
2023/08/12 08:23:04;;;;;;;;;;;27.00;92.00;;;27.65;50.04;98770.19;4980469;28;113594;-81
2023/08/12 08:25:33;;;;;;;;;;;27.00;91.90;;;27.73;49.35;98770.91;4978684;28;124784;-81
2023/08/12 08:28:00;;;;;;;;;;;27.10;91.60;;;27.74;49.12;98763.97;4976801;28;123797;-82
2023/08/12 08:30:26;;;;;;;;;;;27.10;91.50;;;27.76;49.04;98765.16;4991920;28;114535;-81
2023/08/12 08:32:58;;;;;;;;;;;27.20;91.30;;;27.82;48.80;98765.50;4987663;28;113473;-81
2023/08/12 08:35:25;;;;;;;;;;;27.30;91.20;;;27.91;48.52;98762.09;4973080;28;124756;-81
2023/08/12 08:37:51;;;;;;;;;;;27.30;91.00;;;27.99;48.26;98769.28;4985760;28;124242;-81
2023/08/12 08:40:23;;;;;;;;;;;27.40;90.90;;;28.06;48.28;98763.47;4997543;28;114324;-81
2023/08/12 08:42:55;;;;;;;;;;;27.50;90.90;;;28.13;47.97;98774.72;4987419;28;113458;-81
2023/08/12 08:45:22;;;;;;;;;;;27.50;90.70;;;28.19;48.15;98767.31;5002582;28;124685;-81
2023/08/12 08:47:51;;;;;;;;;;;27.60;90.70;;;28.28;48.03;98766.75;4988665;28;124017;-81
2023/08/12 08:50:23;;;;;;;;;;;27.70;90.60;;;28.33;47.52;98779.66;4982133;28;115689;-81
2023/08/12 08:52:51;;;;;;;;;;;27.70;90.40;;;28.33;47.40;98776.81;4975258;28;114285;-81
2023/08/12 08:55:22;;;;;;;;;;;27.80;90.20;;;28.33;47.40;98773.97;4981919;28;124262;-81
2023/08/12 08:57:50;;;;;;;;;;;27.80;90.10;;;28.37;47.36;98771.84;4988992;28;122815;-81
2023/08/12 09:00:25;;;;;;;;;;;27.80;90.10;;;28.39;47.44;98775.88;5003056;28;114202;-80
2023/08/12 09:02:52;;;;;;;;;;;27.90;90.00;;;28.42;47.22;98769.34;4985951;28;113675;-81
2023/08/12 09:05:22;;;;;;;;;;;27.90;89.90;;;28.49;46.98;98770.47;4968156;28;124236;-81
2023/08/12 09:07:49;;;;;;;;;;;28.00;89.90;;;28.55;46.98;98763.84;4967364;28;124567;-81
2023/08/12 09:10:17;;;;;;;;;;;28.10;89.70;;;28.64;47.29;98763.28;4989550;28;114602;-81
2023/08/12 09:12:46;;;;;;;;;;;28.10;89.60;;;28.72;46.71;98755.38;4973487;28;113334;-81
2023/08/12 09:15:15;;;;;;;;;;;28.20;89.50;;;28.78;46.39;98762.19;4970730;28;123770;-82
2023/08/12 09:17:44;;;;;;;;;;;28.20;89.40;;;28.84;46.42;98763.28;4984699;28;123934;-81
2023/08/12 09:20:16;;;;;;;;;;;28.30;89.00;;;28.91;46.57;98763.16;4986001;28;114502;-81
2023/08/12 09:22:45;;;;;;;;;;;28.40;89.00;;;28.93;46.01;98760.63;4992954;28;114865;-81
2023/08/12 09:25:13;;;;;;;;;;;28.40;88.30;;;28.97;45.74;98760.59;4953725;28;125228;-81
2023/08/12 09:27:44;;;;;;;;;;;28.40;87.90;;;29.02;45.57;98763.72;4995665;28;124322;-81
2023/08/12 09:30:13;;;;;;;;;;;28.50;87.70;;;29.11;45.61;98765.19;4984251;28;114041;-82
2023/08/12 09:32:42;;;;;;;;;;;28.60;87.50;;;29.18;45.21;98756.53;4970979;28;113720;-81
2023/08/12 09:35:16;;;;;;;;;;;28.60;87.30;;;29.27;45.47;98754.66;4973915;28;124772;-81
2023/08/12 09:37:44;;;;;;;;;;;28.70;87.20;;;29.36;45.16;98747.56;4993566;28;124196;-81
2023/08/12 09:40:13;;;;;;;;;;;28.80;87.00;;;29.45;44.64;98745.72;4983892;28;114673;-82
2023/08/12 09:42:45;;;;;;;;;;;28.90;86.70;;;29.56;44.40;98747.53;4983675;28;113914;-81
2023/08/12 09:45:13;;;;;;;;;;;28.90;86.30;;;29.64;44.07;98749.78;4982874;28;125033;-81
2023/08/12 09:47:43;;;;;;;;;;;29.00;85.30;;;29.72;43.66;98736.97;4979633;28;124030;-81
2023/08/12 09:50:10;;;;;;;;;;;29.10;85.10;;;29.85;43.55;98739.09;4990895;28;114315;-80
2023/08/12 09:52:38;;;;;;;;;;;29.20;85.00;;;29.95;43.79;98729.50;4978281;28;113365;-81
2023/08/12 09:55:05;;;;;;;;;;;29.30;84.80;;;30.03;43.53;98722.38;4985929;28;124356;-81
2023/08/12 09:57:37;;;;;;;;;;;29.40;84.50;;;30.10;43.22;98710.00;4988636;28;123873;-81
2023/08/12 10:00:09;;;;;;;;;;;29.50;84.00;;;30.16;42.95;98716.75;4989290;28;114681;-81
2023/08/12 10:02:40;;;;;;;;;;;29.60;83.40;;;30.20;42.12;98728.88;4984777;28;113377;-81
2023/08/12 10:05:06;;;;;;;;;;;29.60;82.60;;;30.22;42.03;98712.09;4972672;28;124008;-81
2023/08/12 10:07:33;;;;;;;;;;;29.70;82.00;;;30.24;42.02;98709.63;4971858;28;123736;-81
2023/08/12 10:10:03;;;;;;;;;;;29.70;81.80;;;30.22;43.12;98706.38;4992230;28;114492;-81
2023/08/12 10:12:34;;;;;;;;;;;29.80;83.00;;;30.21;44.67;98719.06;4982941;28;113279;-81
2023/08/12 10:15:05;;;;;;;;;;;29.80;84.40;;;30.19;44.49;98715.06;4973521;28;124020;-81
2023/08/12 10:17:33;;;;;;;;;;;29.80;84.30;;;30.19;44.45;98712.19;4989244;28;123831;-81
2023/08/12 10:20:02;;;;;;;;;;;29.80;84.30;;;30.20;44.59;98705.25;4971568;28;114032;-81
2023/08/12 10:22:30;;;;;;;;;;;29.80;84.70;;;30.23;45.28;98713.75;4985375;28;112837;-81
2023/08/12 10:24:59;;;;;;;;;;;29.90;85.40;;;30.25;45.29;98716.97;4983097;28;124240;-81
2023/08/12 10:27:34;;;;;;;;;;;29.90;86.00;;;30.27;45.69;98705.88;4976146;28;124275;-81
2023/08/12 10:30:10;;;;;;;;;;;29.90;86.30;;;30.27;45.13;98705.09;4990669;28;114785;-81
2023/08/12 10:32:40;;;;;;;;;;;29.90;86.10;;;30.27;45.74;98714.44;4983009;28;114607;-81
2023/08/12 10:35:08;;;;;;;;;;;29.90;85.80;;;30.30;45.21;98713.53;4960259;28;123333;-81
2023/08/12 10:37:37;;;;;;;;;;;29.90;85.90;;;30.35;45.16;98713.00;4982318;28;123913;-81
2023/08/12 10:43:16;;;;;;;;;;;30.00;86.20;;;30.42;44.95;98712.00;4972132;28;114094;-80
2023/08/12 10:46:07;;;;;;;;;;;30.00;85.70;;;30.44;45.30;98722.94;4961482;28;124551;-80
2023/08/12 10:49:14;;;;;;;;;;;30.00;85.60;;;30.46;43.24;98709.06;4953600;28;122453;-79
2023/08/12 10:52:29;;;;;;;;;;;30.00;83.70;;;30.47;43.26;98702.91;4988777;28;114970;-80
2023/08/12 11:01:53;;;;;;;;;;;30.20;81.80;;;30.77;41.63;98695.94;4929710;28;125057;-76
2023/08/12 11:04:21;;;;;;;;;;;30.30;81.30;;;30.87;41.28;98698.94;4925685;28;118696;-76
2023/08/12 11:06:47;;;;;;;;;;;30.30;80.30;;;30.94;40.63;98701.59;4943387;28;113934;-76
2023/08/12 11:09:14;;;;;;;;;;;30.40;79.70;;;31.01;40.62;98692.81;4943045;28;124120;-76
2023/08/12 11:11:41;;;;;;;;;;;30.50;79.40;;;31.08;39.79;98680.38;4941813;28;123958;-76
2023/08/12 11:14:17;;;;;;;;;;;30.50;77.90;;;31.15;39.89;98680.16;4926526;28;114354;-76
2023/08/12 11:16:43;;;;;;;;;;;30.60;77.60;;;31.19;39.52;98697.97;4905352;28;113689;-76
2023/08/12 11:19:11;;;;;;;;;;;30.70;76.50;;;31.25;39.11;98688.38;4924479;28;124400;-76
2023/08/12 11:21:38;;;;;;;;;;;30.70;76.10;;;31.32;38.77;98687.34;4926367;28;124872;-76
2023/08/12 11:24:05;;;;;;;;;;;30.70;75.60;;;31.35;38.07;98668.50;4912906;28;114658;-77
2023/08/12 11:26:33;;;;;;;;;;;30.80;74.90;;;31.34;37.93;98664.84;4910413;28;113701;-77